YME weather

Matane Airport
Matane, Quebec, Canada

Public forecast

Using degrees Celsius for public forecast. Weather courtesy of forecast.io.

METAR (pilot weather report)

Closest report is Mont Joli Airport, 33.4 nm (61.9 km) WSW. Retrieved 2019/05/21 14:00 UTC (7 minutes ago):

CYYY 211400Z 06010KT 2SM -RA BR SCT003 OVC010 05/05 A2959 RMK SF4SC4 OBS TAKEN +13 SLP023

TAF (pilot weather forecast)

Closest forecast is Mont Joli Airport, 33.4 nm (61.9 km) WSW. Retrieved 2019/05/21 14:00 UTC (7 minutes ago):

TAF CYYY 211338Z 2114/2202 06010KT 2SM -RA BR OVC003 TEMPO 2114/2118 6SM -RA BR FEW003 OVC010 FM211800 05015KT P6SM -RA OVC015 TEMPO 2118/2202 3SM -RA -DZ BR BKN007 OVC015 BECMG 2122/2124 04015G25KT RMK NXT FCST BY 212000Z